Time;durP1;ratioP1;P1;durP2;ratioP2;P2;SDS_P1;SDS_P2;PMS_P1;PMS_P2;Temp;Humidity;BMP_temperature;BMP_pressure;BME280_temperature;BME280_humidity;BME280_pressure;Samples;Min_cycle;Max_cycle;Signal;HPM_P1;HPM_P2
2022/10/28 00:00:41;;;;;;;;;;;19.70;65.50;;;;;;5072785;28;20014;-59
2022/10/28 00:03:07;;;;;;;;;;;19.80;65.60;;;;;;5055225;28;19920;-59
2022/10/28 00:05:33;;;;;;;;;;;19.80;65.40;;;;;;5072812;28;19908;-59
2022/10/28 00:07:58;;;;;;;;;;;19.80;65.40;;;;;;5076274;28;19916;-58
2022/10/28 00:10:23;;;;;;;;;;;19.80;65.40;;;;;;5092240;28;19912;-59
2022/10/28 00:12:49;;;;;;;;;;;19.80;65.40;;;;;;5093268;28;19909;-59
2022/10/28 00:15:14;;;;;;;;;;;19.70;65.30;;;;;;5092953;28;19912;-58
2022/10/28 00:17:40;;;;;;;;;;;19.70;65.40;;;;;;5093347;28;19908;-59
2022/10/28 00:20:05;;;;;;;;;;;19.70;65.30;;;;;;5093056;28;19908;-59
2022/10/28 00:22:31;;;;;;;;;;;19.80;65.50;;;;;;5088175;28;19942;-59
2022/10/28 00:24:56;;;;;;;;;;;19.70;65.30;;;;;;5072270;28;19930;-58
2022/10/28 00:27:22;;;;;;;;;;;19.70;65.30;;;;;;5072668;28;19915;-59
2022/10/28 00:29:47;;;;;;;;;;;19.80;65.30;;;;;;5072063;28;19920;-59
2022/10/28 00:32:13;;;;;;;;;;;19.70;65.20;;;;;;5072692;28;19991;-59
2022/10/28 00:34:38;;;;;;;;;;;19.70;65.30;;;;;;5072455;28;19960;-59
2022/10/28 00:37:04;;;;;;;;;;;19.70;65.30;;;;;;5072683;28;19954;-58
2022/10/28 00:39:29;;;;;;;;;;;19.70;65.40;;;;;;5088019;28;19908;-59
2022/10/28 00:41:55;;;;;;;;;;;19.70;65.40;;;;;;5092317;28;20002;-59
2022/10/28 00:44:39;;;;;;;;;;;19.70;65.40;;;;;;5092957;28;20379;-59
2022/10/28 00:47:16;;;;;;;;;;;19.70;65.30;;;;;;5092692;28;20003;-59
2022/10/28 00:49:42;;;;;;;;;;;19.70;65.40;;;;;;5074663;28;20339;-59
2022/10/28 00:52:08;;;;;;;;;;;19.70;65.50;;;;;;5074689;28;19944;-59
2022/10/28 00:54:34;;;;;;;;;;;19.70;65.50;;;;;;5074401;28;19914;-59
2022/10/28 00:57:00;;;;;;;;;;;19.70;65.70;;;;;;5074296;28;19986;-58
2022/10/28 00:59:27;;;;;;;;;;;19.70;65.60;;;;;;5074598;28;19995;-59
2022/10/28 01:01:52;;;;;;;;;;;19.70;65.60;;;;;;5074488;28;19961;-59
2022/10/28 01:04:18;;;;;;;;;;;19.70;65.60;;;;;;5092501;28;19912;-59
2022/10/28 01:06:43;;;;;;;;;;;19.70;65.60;;;;;;5074255;28;20356;-59
2022/10/28 01:09:08;;;;;;;;;;;19.70;65.60;;;;;;5092572;28;20335;-59
2022/10/28 01:11:37;;;;;;;;;;;19.70;65.50;;;;;;5088254;28;20309;-59
2022/10/28 01:14:15;;;;;;;;;;;19.70;65.50;;;;;;5072418;28;19916;-59
2022/10/28 01:16:53;;;;;;;;;;;19.70;65.60;;;;;;5054364;28;20260;-58
2022/10/28 01:19:34;;;;;;;;;;;19.70;65.60;;;;;;5054432;28;20337;-58
2022/10/28 01:22:05;;;;;;;;;;;19.70;65.50;;;;;;5072370;28;20291;-59
2022/10/28 01:24:51;;;;;;;;;;;19.70;65.40;;;;;;5053960;28;19920;-58
2022/10/28 01:27:31;;;;;;;;;;;19.70;65.30;;;;;;5053900;28;19912;-59
2022/10/28 01:29:57;;;;;;;;;;;19.70;65.30;;;;;;5072103;28;19909;-58
2022/10/28 01:32:32;;;;;;;;;;;19.70;65.30;;;;;;5072190;28;19909;-58
2022/10/28 01:35:05;;;;;;;;;;;19.70;65.30;;;;;;5054128;28;19970;-58
2022/10/28 01:37:38;;;;;;;;;;;19.70;65.40;;;;;;5054296;28;19909;-59
2022/10/28 01:40:06;;;;;;;;;;;19.70;65.40;;;;;;5054902;28;19958;-59
2022/10/28 01:42:35;;;;;;;;;;;19.70;66.00;;;;;;5058047;28;19913;-58
2022/10/28 01:45:03;;;;;;;;;;;19.70;65.10;;;;;;5057726;28;19915;-59
2022/10/28 01:47:36;;;;;;;;;;;19.80;65.00;;;;;;5057783;28;20334;-59
2022/10/28 01:50:07;;;;;;;;;;;19.80;64.90;;;;;;5075481;28;19909;-58
2022/10/28 01:52:32;;;;;;;;;;;19.80;64.70;;;;;;5075889;28;19995;-58
2022/10/28 01:55:09;;;;;;;;;;;19.90;64.80;;;;;;5074932;28;20376;-59
2022/10/28 01:57:35;;;;;;;;;;;19.90;64.60;;;;;;5057730;28;20011;-59
2022/10/28 02:00:01;;;;;;;;;;;19.90;64.60;;;;;;5057443;28;19915;-59
2022/10/28 02:02:26;;;;;;;;;;;19.90;64.50;;;;;;5057285;28;19912;-59
2022/10/28 02:05:01;;;;;;;;;;;19.90;64.50;;;;;;5057273;28;19908;-59
2022/10/28 02:07:27;;;;;;;;;;;19.90;64.60;;;;;;5057286;28;19916;-59
2022/10/28 02:10:07;;;;;;;;;;;19.80;64.50;;;;;;5076038;28;19914;-59
2022/10/28 02:12:33;;;;;;;;;;;19.80;64.50;;;;;;5102376;28;19908;-59
2022/10/28 02:15:02;;;;;;;;;;;19.90;64.60;;;;;;5060452;28;19912;-59
2022/10/28 02:17:27;;;;;;;;;;;19.80;64.50;;;;;;5095612;28;20367;-59
2022/10/28 02:19:58;;;;;;;;;;;19.80;64.60;;;;;;5095239;28;19999;-58
2022/10/28 02:22:26;;;;;;;;;;;19.80;64.60;;;;;;5073496;28;20328;-59
2022/10/28 02:25:01;;;;;;;;;;;19.80;64.70;;;;;;5056694;28;19909;-58
2022/10/28 02:27:45;;;;;;;;;;;19.80;64.60;;;;;;5057254;28;19930;-59
2022/10/28 02:30:12;;;;;;;;;;;19.80;64.70;;;;;;5074757;28;19909;-58
2022/10/28 02:32:39;;;;;;;;;;;19.80;64.60;;;;;;5057064;28;19908;-59
2022/10/28 02:35:06;;;;;;;;;;;19.80;64.70;;;;;;5074664;28;20027;-58
2022/10/28 02:37:32;;;;;;;;;;;19.80;64.70;;;;;;5056828;28;20288;-59
2022/10/28 02:39:58;;;;;;;;;;;19.80;64.70;;;;;;5093929;28;19912;-58
2022/10/28 02:42:25;;;;;;;;;;;19.80;64.70;;;;;;5076659;28;20010;-59
2022/10/28 02:44:52;;;;;;;;;;;19.80;64.70;;;;;;5076731;28;20295;-59
2022/10/28 02:47:18;;;;;;;;;;;19.80;64.80;;;;;;5076770;28;20004;-58
2022/10/28 02:49:44;;;;;;;;;;;19.80;64.80;;;;;;5076646;28;20325;-59
2022/10/28 02:52:10;;;;;;;;;;;19.70;64.70;;;;;;5075908;28;19908;-58
2022/10/28 02:54:39;;;;;;;;;;;19.70;64.70;;;;;;5094113;28;19908;-58
2022/10/28 02:57:06;;;;;;;;;;;19.70;64.70;;;;;;5076146;28;19909;-59
2022/10/28 02:59:31;;;;;;;;;;;19.80;64.80;;;;;;5076782;28;19915;-59
2022/10/28 03:01:57;;;;;;;;;;;19.70;64.70;;;;;;5094408;28;19912;-59
2022/10/28 03:04:22;;;;;;;;;;;19.70;64.80;;;;;;5094235;28;19908;-59
2022/10/28 03:06:48;;;;;;;;;;;19.70;64.80;;;;;;5076019;28;20379;-59
2022/10/28 03:09:13;;;;;;;;;;;19.70;64.80;;;;;;5094462;28;19908;-59
2022/10/28 03:11:39;;;;;;;;;;;19.70;64.90;;;;;;5090996;28;19986;-59
2022/10/28 03:14:04;;;;;;;;;;;19.70;64.90;;;;;;5073979;28;19909;-59
2022/10/28 03:16:29;;;;;;;;;;;19.70;65.00;;;;;;5055915;28;20020;-59
2022/10/28 03:18:55;;;;;;;;;;;19.70;64.90;;;;;;5074071;28;19909;-58
2022/10/28 03:21:20;;;;;;;;;;;19.70;64.80;;;;;;5055908;28;19970;-59
2022/10/28 03:23:46;;;;;;;;;;;19.80;64.70;;;;;;5073886;28;19909;-58
2022/10/28 03:26:11;;;;;;;;;;;19.80;64.70;;;;;;5072953;28;19931;-58
2022/10/28 03:28:37;;;;;;;;;;;19.80;64.60;;;;;;5073677;28;19913;-58
2022/10/28 03:31:02;;;;;;;;;;;19.80;64.70;;;;;;5055772;28;20000;-58
2022/10/28 03:33:28;;;;;;;;;;;19.80;64.50;;;;;;5039015;28;19951;-59
2022/10/28 03:35:53;;;;;;;;;;;19.80;64.60;;;;;;5073400;28;20354;-59
2022/10/28 03:38:19;;;;;;;;;;;19.80;64.70;;;;;;5079590;28;19919;-59
2022/10/28 03:40:46;;;;;;;;;;;19.80;64.70;;;;;;5092670;28;19912;-59
2022/10/28 03:43:11;;;;;;;;;;;19.70;64.60;;;;;;5093849;28;19948;-59
2022/10/28 03:45:37;;;;;;;;;;;19.70;64.70;;;;;;5093397;28;20363;-59
2022/10/28 03:48:02;;;;;;;;;;;19.70;64.90;;;;;;5093652;28;20352;-58
2022/10/28 03:50:28;;;;;;;;;;;19.70;64.90;;;;;;5088749;28;20364;-59
2022/10/28 03:52:53;;;;;;;;;;;19.70;64.80;;;;;;5073398;28;19921;-59
2022/10/28 03:55:19;;;;;;;;;;;19.60;64.90;;;;;;5072302;28;19917;-59
2022/10/28 03:57:44;;;;;;;;;;;19.60;65.00;;;;;;5055564;28;19987;-57
2022/10/28 04:00:10;;;;;;;;;;;19.60;64.90;;;;;;5073009;28;19915;-58
2022/10/28 04:02:35;;;;;;;;;;;19.60;64.80;;;;;;5072548;28;19912;-59
2022/10/28 04:05:01;;;;;;;;;;;19.70;64.80;;;;;;5072419;28;20356;-58
2022/10/28 04:07:26;;;;;;;;;;;19.70;64.70;;;;;;5055057;28;19916;-59
2022/10/28 04:09:52;;;;;;;;;;;19.70;64.60;;;;;;5091796;28;19912;-59
2022/10/28 04:12:17;;;;;;;;;;;19.70;64.40;;;;;;5092856;28;19920;-59
2022/10/28 04:14:43;;;;;;;;;;;19.80;64.50;;;;;;5093095;28;19912;-59
2022/10/28 04:17:08;;;;;;;;;;;19.70;64.40;;;;;;5093239;28;19908;-59
2022/10/28 04:19:34;;;;;;;;;;;19.80;64.50;;;;;;5074886;28;19939;-59
2022/10/28 04:21:59;;;;;;;;;;;19.80;64.40;;;;;;5093086;28;20078;-59
2022/10/28 04:24:24;;;;;;;;;;;19.70;64.40;;;;;;5092934;28;19915;-59
2022/10/28 04:26:50;;;;;;;;;;;19.70;64.50;;;;;;5092473;28;19966;-59
2022/10/28 04:29:16;;;;;;;;;;;19.70;64.50;;;;;;5093069;28;19915;-59
2022/10/28 04:31:41;;;;;;;;;;;19.70;64.50;;;;;;5092912;28;19908;-58
2022/10/28 04:34:07;;;;;;;;;;;19.70;64.40;;;;;;5092857;28;19942;-60
2022/10/28 04:36:32;;;;;;;;;;;19.70;64.50;;;;;;5074788;28;19915;-59
2022/10/28 04:38:58;;;;;;;;;;;19.70;64.40;;;;;;5092839;28;20418;-58
2022/10/28 04:41:23;;;;;;;;;;;19.70;64.40;;;;;;5075148;28;20371;-59
2022/10/28 04:43:49;;;;;;;;;;;19.70;64.30;;;;;;5072750;28;20356;-59
2022/10/28 04:46:14;;;;;;;;;;;19.80;64.30;;;;;;5072519;28;20437;-58
2022/10/28 04:48:39;;;;;;;;;;;19.80;64.40;;;;;;5072644;28;19947;-58
2022/10/28 04:51:05;;;;;;;;;;;19.70;64.30;;;;;;5054575;28;19908;-59
2022/10/28 04:53:30;;;;;;;;;;;19.70;64.30;;;;;;5072618;28;20006;-59
2022/10/28 04:55:56;;;;;;;;;;;19.70;64.40;;;;;;5053822;28;19912;-59
2022/10/28 04:58:22;;;;;;;;;;;19.70;64.50;;;;;;5054646;28;19916;-58
2022/10/28 05:00:47;;;;;;;;;;;19.70;64.60;;;;;;5072207;28;19912;-59
2022/10/28 05:03:13;;;;;;;;;;;19.70;64.50;;;;;;5072427;28;20020;-59
2022/10/28 05:05:39;;;;;;;;;;;19.70;64.50;;;;;;5072424;28;19948;-58
2022/10/28 05:08:05;;;;;;;;;;;19.70;64.60;;;;;;5076376;28;19923;-59
2022/10/28 05:10:30;;;;;;;;;;;19.70;64.60;;;;;;5073570;28;19908;-58
2022/10/28 05:12:56;;;;;;;;;;;19.70;64.50;;;;;;5079538;28;20422;-58
2022/10/28 05:15:21;;;;;;;;;;;19.70;64.50;;;;;;5074212;28;19991;-59
2022/10/28 05:17:47;;;;;;;;;;;19.70;64.50;;;;;;5076404;28;19908;-59
2022/10/28 05:20:13;;;;;;;;;;;19.70;64.50;;;;;;5076029;28;20438;-59
2022/10/28 05:22:43;;;;;;;;;;;19.70;64.40;;;;;;5076318;28;19916;-59
2022/10/28 05:25:09;;;;;;;;;;;19.80;64.40;;;;;;5075299;28;19912;-58
2022/10/28 05:27:34;;;;;;;;;;;19.80;64.30;;;;;;5058661;28;20447;-59
2022/10/28 05:30:00;;;;;;;;;;;19.80;64.30;;;;;;5076120;28;19908;-59
2022/10/28 05:32:25;;;;;;;;;;;19.80;64.30;;;;;;5058125;28;19914;-59
2022/10/28 05:34:51;;;;;;;;;;;19.80;64.20;;;;;;5075892;28;19916;-59
2022/10/28 05:37:16;;;;;;;;;;;19.80;64.20;;;;;;5075835;28;19975;-59
2022/10/28 05:39:41;;;;;;;;;;;19.80;64.20;;;;;;5093121;28;19985;-59
2022/10/28 05:42:07;;;;;;;;;;;19.80;64.20;;;;;;5077353;28;20366;-59
2022/10/28 05:44:32;;;;;;;;;;;19.80;64.20;;;;;;5096020;28;20367;-59
2022/10/28 05:46:58;;;;;;;;;;;19.70;64.10;;;;;;5077863;28;19908;-59
2022/10/28 05:49:23;;;;;;;;;;;19.70;64.20;;;;;;5095807;28;19912;-59
2022/10/28 05:51:49;;;;;;;;;;;19.70;64.20;;;;;;5061114;28;19912;-59
2022/10/28 05:54:14;;;;;;;;;;;19.70;64.30;;;;;;5095826;28;19908;-59
2022/10/28 05:56:39;;;;;;;;;;;19.70;64.30;;;;;;5094865;28;19976;-58
2022/10/28 05:59:05;;;;;;;;;;;19.70;64.50;;;;;;5077763;28;20012;-59
2022/10/28 06:01:30;;;;;;;;;;;19.70;64.50;;;;;;5090814;28;19935;-58
2022/10/28 06:03:56;;;;;;;;;;;19.70;64.60;;;;;;5075368;28;19916;-59
2022/10/28 06:06:21;;;;;;;;;;;19.70;64.60;;;;;;5074980;28;19917;-58
2022/10/28 06:08:47;;;;;;;;;;;19.70;64.60;;;;;;5085425;28;20103;-59
2022/10/28 06:11:12;;;;;;;;;;;19.60;64.50;;;;;;5094668;28;19916;-59
2022/10/28 06:13:37;;;;;;;;;;;19.60;64.50;;;;;;5095514;28;19908;-59
2022/10/28 06:16:03;;;;;;;;;;;19.60;64.50;;;;;;5095322;28;19908;-58
2022/10/28 06:18:28;;;;;;;;;;;19.60;64.60;;;;;;5095321;28;20453;-59
2022/10/28 06:20:54;;;;;;;;;;;19.60;64.50;;;;;;5095423;28;19963;-59
2022/10/28 06:23:20;;;;;;;;;;;19.70;64.50;;;;;;5095402;28;19957;-59
2022/10/28 06:25:46;;;;;;;;;;;19.70;64.50;;;;;;5093636;28;20386;-59
2022/10/28 06:28:11;;;;;;;;;;;19.70;64.50;;;;;;5095042;28;19966;-58
2022/10/28 06:30:36;;;;;;;;;;;19.70;64.50;;;;;;5095011;28;19916;-58
2022/10/28 06:33:02;;;;;;;;;;;19.70;64.50;;;;;;5095237;28;19908;-59
2022/10/28 06:35:27;;;;;;;;;;;19.70;64.50;;;;;;5094788;28;19908;-59
2022/10/28 06:37:56;;;;;;;;;;;19.70;64.40;;;;;;5095038;28;19941;-57
2022/10/28 06:40:22;;;;;;;;;;;19.70;64.20;;;;;;5085807;28;20687;-59
2022/10/28 06:42:47;;;;;;;;;;;19.70;64.20;;;;;;5074810;28;19944;-59
2022/10/28 06:45:13;;;;;;;;;;;19.70;64.20;;;;;;5074460;28;19955;-59
2022/10/28 06:47:38;;;;;;;;;;;19.70;64.20;;;;;;5074634;28;19909;-59
2022/10/28 06:50:04;;;;;;;;;;;19.70;64.10;;;;;;5056434;28;19909;-59
2022/10/28 06:52:29;;;;;;;;;;;19.70;64.20;;;;;;5074668;28;19912;-59
2022/10/28 06:54:54;;;;;;;;;;;19.70;64.30;;;;;;5073966;28;20284;-59
2022/10/28 06:57:20;;;;;;;;;;;19.70;65.20;;;;;;5073937;28;19908;-59
2022/10/28 06:59:45;;;;;;;;;;;19.70;64.40;;;;;;5056671;28;19948;-59
2022/10/28 07:02:11;;;;;;;;;;;19.70;64.30;;;;;;5074158;28;19913;-59
2022/10/28 07:04:36;;;;;;;;;;;19.70;64.30;;;;;;5074121;28;19909;-58
2022/10/28 07:07:02;;;;;;;;;;;19.70;64.20;;;;;;5073977;28;19978;-58
2022/10/28 07:09:27;;;;;;;;;;;19.70;64.20;;;;;;5089326;28;19934;-58
2022/10/28 07:11:53;;;;;;;;;;;19.70;64.30;;;;;;5089628;28;20372;-58
2022/10/28 07:14:18;;;;;;;;;;;19.70;64.30;;;;;;5074175;28;19962;-59
2022/10/28 07:16:44;;;;;;;;;;;19.70;64.20;;;;;;5073761;28;19944;-58
2022/10/28 07:19:09;;;;;;;;;;;19.70;64.20;;;;;;5073973;28;19935;-59
2022/10/28 07:21:34;;;;;;;;;;;19.70;64.20;;;;;;5073783;28;19981;-59
2022/10/28 07:24:00;;;;;;;;;;;19.70;64.20;;;;;;5073854;28;19930;-59
2022/10/28 07:26:26;;;;;;;;;;;19.70;64.20;;;;;;5055019;28;20314;-59
2022/10/28 07:28:51;;;;;;;;;;;19.70;64.30;;;;;;5073764;28;19908;-59
2022/10/28 07:31:16;;;;;;;;;;;19.70;64.30;;;;;;5073434;28;19908;-59
2022/10/28 07:33:42;;;;;;;;;;;19.70;64.10;;;;;;5055917;28;19978;-59
2022/10/28 07:36:08;;;;;;;;;;;19.70;64.50;;;;;;5073537;28;19908;-59
2022/10/28 07:38:33;;;;;;;;;;;19.70;64.20;;;;;;5081511;28;20429;-59
2022/10/28 07:41:02;;;;;;;;;;;19.70;64.20;;;;;;5058100;28;20011;-58
2022/10/28 07:43:27;;;;;;;;;;;19.70;64.20;;;;;;5093688;28;19908;-59
2022/10/28 07:45:56;;;;;;;;;;;19.70;64.30;;;;;;5075477;28;20425;-59
2022/10/28 07:48:21;;;;;;;;;;;19.70;64.20;;;;;;5093701;28;19914;-58
2022/10/28 07:50:47;;;;;;;;;;;19.80;64.20;;;;;;5093513;28;19999;-59
2022/10/28 07:53:12;;;;;;;;;;;19.80;64.20;;;;;;5093702;28;19915;-59
2022/10/28 07:55:38;;;;;;;;;;;19.80;64.20;;;;;;5092430;28;19908;-58
2022/10/28 07:58:03;;;;;;;;;;;19.80;64.10;;;;;;5093423;28;19915;-58
2022/10/28 08:00:29;;;;;;;;;;;19.80;64.10;;;;;;5093330;28;19953;-59
2022/10/28 08:02:54;;;;;;;;;;;19.80;64.20;;;;;;5074510;28;20264;-59
2022/10/28 08:05:19;;;;;;;;;;;19.70;64.10;;;;;;5072971;28;19912;-59
2022/10/28 08:07:46;;;;;;;;;;;19.70;64.10;;;;;;5074376;28;19924;-60
2022/10/28 08:10:12;;;;;;;;;;;19.70;64.40;;;;;;5092357;28;19961;-59
2022/10/28 08:12:37;;;;;;;;;;;19.70;64.30;;;;;;5075410;28;19994;-59
2022/10/28 08:15:03;;;;;;;;;;;19.70;64.60;;;;;;5093251;28;19915;-59
2022/10/28 08:17:29;;;;;;;;;;;19.70;64.60;;;;;;5093309;28;19912;-58
2022/10/28 08:19:54;;;;;;;;;;;19.60;64.60;;;;;;5093109;28;20367;-59
2022/10/28 08:22:19;;;;;;;;;;;19.60;64.60;;;;;;5093064;28;19920;-58
2022/10/28 08:24:45;;;;;;;;;;;19.60;64.60;;;;;;5092623;28;19912;-59
2022/10/28 08:27:10;;;;;;;;;;;19.60;65.60;;;;;;5092713;28;19908;-58
2022/10/28 08:29:36;;;;;;;;;;;19.60;64.80;;;;;;5092982;28;19909;-58
2022/10/28 08:32:01;;;;;;;;;;;19.60;64.80;;;;;;5093119;28;19986;-59
2022/10/28 08:34:28;;;;;;;;;;;19.60;64.60;;;;;;5092732;28;19946;-59
2022/10/28 08:36:55;;;;;;;;;;;19.70;64.60;;;;;;5092923;28;19908;-59
2022/10/28 08:39:20;;;;;;;;;;;19.70;64.50;;;;;;5093075;28;19915;-59
2022/10/28 08:41:46;;;;;;;;;;;19.70;64.20;;;;;;5071908;28;20291;-58
2022/10/28 08:44:27;;;;;;;;;;;19.80;64.40;;;;;;5054758;28;19908;-58
2022/10/28 08:47:02;;;;;;;;;;;19.80;64.30;;;;;;5072535;28;19916;-58
2022/10/28 08:49:28;;;;;;;;;;;19.80;64.20;;;;;;5056642;28;20327;-59
2022/10/28 08:51:53;;;;;;;;;;;19.80;64.20;;;;;;5061310;28;19909;-59
2022/10/28 08:54:20;;;;;;;;;;;19.80;64.20;;;;;;5079136;28;19912;-59
2022/10/28 08:56:46;;;;;;;;;;;19.70;64.40;;;;;;5078293;28;19909;-59
2022/10/28 08:59:12;;;;;;;;;;;19.70;64.50;;;;;;5061325;28;19908;-59
2022/10/28 09:01:41;;;;;;;;;;;19.70;64.70;;;;;;5061009;28;20004;-59
2022/10/28 09:04:11;;;;;;;;;;;19.60;64.90;;;;;;5079223;28;19912;-59
2022/10/28 09:06:37;;;;;;;;;;;19.60;65.10;;;;;;5060793;28;19967;-59
2022/10/28 09:09:02;;;;;;;;;;;19.60;65.20;;;;;;5091401;28;19958;-59
2022/10/28 09:11:42;;;;;;;;;;;19.60;65.30;;;;;;5079292;28;19908;-59
2022/10/28 09:14:10;;;;;;;;;;;19.60;65.40;;;;;;5079015;28;19962;-59
2022/10/28 09:16:42;;;;;;;;;;;19.60;65.40;;;;;;5060840;28;19987;-59
2022/10/28 09:19:13;;;;;;;;;;;19.60;65.40;;;;;;5078975;28;19916;-59
2022/10/28 09:21:41;;;;;;;;;;;19.60;65.30;;;;;;5060772;28;20391;-58
2022/10/28 09:24:13;;;;;;;;;;;19.60;65.40;;;;;;5078945;28;19908;-59
2022/10/28 09:26:56;;;;;;;;;;;19.60;65.40;;;;;;5060083;28;19908;-59
2022/10/28 09:29:42;;;;;;;;;;;19.60;65.40;;;;;;5061119;28;19908;-59
2022/10/28 09:32:20;;;;;;;;;;;19.70;65.60;;;;;;5078045;28;19916;-58
2022/10/28 09:34:58;;;;;;;;;;;19.60;65.40;;;;;;5078637;28;19908;-59
2022/10/28 09:37:28;;;;;;;;;;;19.70;65.50;;;;;;5060828;28;19908;-59
2022/10/28 09:39:54;;;;;;;;;;;19.70;65.50;;;;;;5079719;28;19908;-58
2022/10/28 09:42:22;;;;;;;;;;;19.70;65.40;;;;;;5080479;28;19916;-59
2022/10/28 09:44:49;;;;;;;;;;;19.70;65.40;;;;;;5081003;28;20302;-59
2022/10/28 09:47:16;;;;;;;;;;;19.70;65.50;;;;;;5098808;28;19908;-59
2022/10/28 09:49:41;;;;;;;;;;;19.70;65.50;;;;;;5080758;28;19916;-59
2022/10/28 09:52:09;;;;;;;;;;;19.70;65.40;;;;;;5080852;28;19908;-60
2022/10/28 09:54:36;;;;;;;;;;;19.70;65.40;;;;;;5098341;28;19908;-59
2022/10/28 09:57:01;;;;;;;;;;;19.70;65.30;;;;;;5080398;28;19915;-59
2022/10/28 09:59:27;;;;;;;;;;;19.70;65.50;;;;;;5098767;28;20007;-59
2022/10/28 10:01:52;;;;;;;;;;;19.80;65.60;;;;;;5085762;28;19919;-60
2022/10/28 10:04:22;;;;;;;;;;;19.80;65.60;;;;;;5057449;28;19908;-60
2022/10/28 10:07:07;;;;;;;;;;;19.80;65.50;;;;;;5075085;28;20319;-60
2022/10/28 10:09:33;;;;;;;;;;;19.80;65.50;;;;;;5090915;28;19965;-60
2022/10/28 10:11:59;;;;;;;;;;;19.80;65.50;;;;;;5095252;28;19984;-60
2022/10/28 10:14:27;;;;;;;;;;;19.80;65.50;;;;;;5077208;28;20330;-60
2022/10/28 10:16:54;;;;;;;;;;;19.80;65.50;;;;;;5077370;28;19915;-60
2022/10/28 10:19:19;;;;;;;;;;;19.90;65.50;;;;;;5095498;28;19908;-60
2022/10/28 10:21:45;;;;;;;;;;;19.80;65.50;;;;;;5077005;28;19917;-59
2022/10/28 10:24:26;;;;;;;;;;;19.90;65.60;;;;;;5095289;28;20359;-60
2022/10/28 10:26:51;;;;;;;;;;;19.90;65.50;;;;;;5076574;28;19916;-59
2022/10/28 10:29:17;;;;;;;;;;;19.90;65.70;;;;;;5095222;28;19908;-60
2022/10/28 10:31:42;;;;;;;;;;;19.90;65.60;;;;;;5095050;28;19908;-60
2022/10/28 10:34:19;;;;;;;;;;;19.90;65.70;;;;;;5095387;28;19957;-60
2022/10/28 10:36:48;;;;;;;;;;;19.90;65.60;;;;;;5076802;28;19915;-60
2022/10/28 10:39:18;;;;;;;;;;;19.90;66.40;;;;;;5077124;28;20352;-59
2022/10/28 10:41:43;;;;;;;;;;;19.90;65.70;;;;;;5056565;28;19962;-60
2022/10/28 10:44:21;;;;;;;;;;;19.90;65.60;;;;;;5056815;28;19908;-58
2022/10/28 10:47:12;;;;;;;;;;;19.90;65.60;;;;;;5074484;28;19909;-59
2022/10/28 10:49:37;;;;;;;;;;;20.00;65.60;;;;;;5074452;28;19962;-59
2022/10/28 10:52:15;;;;;;;;;;;20.00;65.90;;;;;;5074794;28;19912;-59
2022/10/28 10:54:40;;;;;;;;;;;20.00;65.60;;;;;;5074128;28;20320;-60
2022/10/28 10:57:07;;;;;;;;;;;20.00;65.80;;;;;;5056211;28;19915;-60
2022/10/28 10:59:32;;;;;;;;;;;20.00;65.80;;;;;;5074482;28;19909;-60
2022/10/28 11:01:58;;;;;;;;;;;20.00;65.80;;;;;;5056309;28;19981;-59
2022/10/28 11:04:24;;;;;;;;;;;20.00;65.80;;;;;;5056191;28;20324;-59
2022/10/28 11:06:50;;;;;;;;;;;20.00;65.80;;;;;;5056016;28;19921;-59
2022/10/28 11:09:18;;;;;;;;;;;20.00;65.90;;;;;;5070839;28;20355;-60
2022/10/28 11:11:44;;;;;;;;;;;20.00;65.70;;;;;;5093388;28;20074;-59
2022/10/28 11:14:09;;;;;;;;;;;20.00;65.80;;;;;;5093918;28;19951;-60
2022/10/28 11:16:50;;;;;;;;;;;20.00;65.90;;;;;;5094395;28;19908;-59
2022/10/28 11:19:28;;;;;;;;;;;20.00;65.90;;;;;;5094275;28;19908;-60
2022/10/28 11:21:57;;;;;;;;;;;20.00;66.00;;;;;;5094365;28;19943;-60
2022/10/28 11:24:30;;;;;;;;;;;20.00;66.00;;;;;;5094170;28;19908;-60
2022/10/28 11:26:58;;;;;;;;;;;20.00;65.80;;;;;;5075680;28;19908;-60
2022/10/28 11:29:24;;;;;;;;;;;20.10;65.80;;;;;;5087417;28;19909;-60
2022/10/28 11:31:52;;;;;;;;;;;20.10;65.80;;;;;;5073729;28;19912;-60
2022/10/28 11:34:33;;;;;;;;;;;20.20;65.80;;;;;;5073521;28;19916;-58
2022/10/28 11:36:58;;;;;;;;;;;20.20;65.70;;;;;;5073523;28;20388;-60
2022/10/28 11:39:35;;;;;;;;;;;20.20;65.60;;;;;;5088833;28;19912;-59
2022/10/28 11:42:20;;;;;;;;;;;20.20;65.70;;;;;;5075424;28;19916;-60
2022/10/28 11:44:49;;;;;;;;;;;20.10;65.60;;;;;;5093655;28;19912;-60
2022/10/28 11:47:21;;;;;;;;;;;20.10;65.70;;;;;;5075566;28;19970;-59
2022/10/28 11:49:58;;;;;;;;;;;20.10;65.80;;;;;;5075546;28;19915;-60
2022/10/28 11:52:42;;;;;;;;;;;20.10;65.80;;;;;;5075984;28;19927;-60
2022/10/28 11:55:26;;;;;;;;;;;20.10;66.00;;;;;;5092709;28;19908;-59
2022/10/28 11:58:14;;;;;;;;;;;20.10;65.90;;;;;;5093532;28;20010;-60
2022/10/28 12:00:58;;;;;;;;;;;20.10;66.00;;;;;;5084423;28;20387;-59
2022/10/28 12:03:36;;;;;;;;;;;20.10;66.10;;;;;;5055281;28;19913;-59
2022/10/28 12:06:04;;;;;;;;;;;20.10;66.30;;;;;;5072863;28;20375;-60
2022/10/28 12:08:30;;;;;;;;;;;20.10;66.20;;;;;;5063198;28;19973;-59
2022/10/28 12:10:55;;;;;;;;;;;20.10;66.20;;;;;;5092379;28;19912;-59
2022/10/28 12:13:27;;;;;;;;;;;20.10;66.50;;;;;;5093256;28;19976;-58
2022/10/28 12:15:56;;;;;;;;;;;20.10;66.40;;;;;;5092997;28;19915;-59
2022/10/28 12:18:33;;;;;;;;;;;20.10;66.50;;;;;;5093398;28;20040;-59
2022/10/28 12:21:05;;;;;;;;;;;20.10;66.50;;;;;;5092911;28;19957;-59
2022/10/28 12:23:30;;;;;;;;;;;20.20;66.40;;;;;;5074920;28;20307;-59
2022/10/28 12:25:56;;;;;;;;;;;20.20;66.20;;;;;;5073429;28;19915;-59
2022/10/28 12:28:24;;;;;;;;;;;20.20;66.10;;;;;;5074936;28;20367;-59
2022/10/28 12:30:49;;;;;;;;;;;20.30;66.10;;;;;;5074694;28;19912;-59
2022/10/28 12:33:23;;;;;;;;;;;20.20;66.00;;;;;;5075088;28;19908;-59
2022/10/28 12:35:50;;;;;;;;;;;20.20;66.10;;;;;;5092708;28;19958;-58
2022/10/28 12:38:19;;;;;;;;;;;20.20;66.30;;;;;;5075118;28;19908;-58
2022/10/28 12:40:47;;;;;;;;;;;20.20;66.40;;;;;;5062731;28;19932;-59
2022/10/28 12:43:15;;;;;;;;;;;20.10;66.50;;;;;;5072832;28;20287;-59
2022/10/28 12:45:40;;;;;;;;;;;20.10;66.60;;;;;;5054779;28;19999;-59
2022/10/28 12:48:26;;;;;;;;;;;20.20;66.70;;;;;;5072682;28;20433;-59
2022/10/28 12:50:52;;;;;;;;;;;20.20;66.70;;;;;;5071840;28;19955;-59
2022/10/28 12:53:21;;;;;;;;;;;20.20;66.50;;;;;;5054759;28;20374;-59
2022/10/28 12:55:51;;;;;;;;;;;20.30;66.50;;;;;;5053679;28;19913;-59
2022/10/28 12:58:26;;;;;;;;;;;20.30;66.50;;;;;;5054624;28;19909;-59
2022/10/28 13:00:56;;;;;;;;;;;20.30;66.50;;;;;;5054337;28;19935;-58
2022/10/28 13:03:21;;;;;;;;;;;20.30;66.50;;;;;;5054652;28;19908;-59
2022/10/28 13:06:05;;;;;;;;;;;20.30;66.50;;;;;;5072507;28;19916;-59
2022/10/28 13:08:46;;;;;;;;;;;20.40;66.50;;;;;;5080274;28;20371;-59
2022/10/28 13:11:14;;;;;;;;;;;20.40;66.30;;;;;;5091606;28;19908;-59
2022/10/28 13:13:58;;;;;;;;;;;20.40;66.30;;;;;;5092512;28;19908;-58
2022/10/28 13:16:39;;;;;;;;;;;20.40;66.10;;;;;;5092263;28;19915;-59
2022/10/28 13:19:13;;;;;;;;;;;20.40;66.80;;;;;;5092527;28;19912;-58
2022/10/28 13:21:57;;;;;;;;;;;20.40;66.10;;;;;;5080897;28;19941;-58
2022/10/28 13:24:24;;;;;;;;;;;20.50;66.20;;;;;;5092397;28;20136;-59
2022/10/28 13:26:50;;;;;;;;;;;20.50;65.90;;;;;;5073826;28;20070;-59
2022/10/28 13:29:25;;;;;;;;;;;20.50;65.80;;;;;;5069892;28;19969;-59
2022/10/28 13:31:51;;;;;;;;;;;20.50;65.90;;;;;;5054234;28;20371;-59
2022/10/28 13:34:17;;;;;;;;;;;20.50;66.00;;;;;;5054438;28;19908;-59
2022/10/28 13:36:44;;;;;;;;;;;20.50;66.80;;;;;;5056952;28;19912;-59
2022/10/28 13:39:35;;;;;;;;;;;20.50;66.10;;;;;;5089100;28;20045;-59
2022/10/28 13:42:18;;;;;;;;;;;20.50;66.20;;;;;;5092370;28;19916;-59
2022/10/28 13:44:52;;;;;;;;;;;20.40;66.30;;;;;;5102904;28;19912;-59
2022/10/28 13:47:25;;;;;;;;;;;20.40;66.40;;;;;;5095955;28;19991;-59
2022/10/28 13:50:09;;;;;;;;;;;20.40;66.60;;;;;;5077704;28;19971;-59
2022/10/28 13:52:44;;;;;;;;;;;20.40;66.60;;;;;;5095872;28;19963;-59
2022/10/28 13:55:12;;;;;;;;;;;20.40;66.70;;;;;;5094935;28;19974;-58
2022/10/28 13:57:38;;;;;;;;;;;20.40;66.90;;;;;;5096262;28;20283;-59
2022/10/28 14:00:05;;;;;;;;;;;20.40;66.90;;;;;;5095805;28;19909;-58
2022/10/28 14:02:40;;;;;;;;;;;20.40;66.80;;;;;;5062161;28;19978;-60
2022/10/28 14:05:07;;;;;;;;;;;20.30;66.80;;;;;;5040686;28;19917;-60
2022/10/28 14:07:32;;;;;;;;;;;20.30;66.80;;;;;;5057528;28;19917;-59
2022/10/28 14:10:09;;;;;;;;;;;20.40;66.90;;;;;;5077139;28;19998;-59
2022/10/28 14:12:35;;;;;;;;;;;20.30;66.80;;;;;;5077577;28;19908;-59
2022/10/28 14:15:13;;;;;;;;;;;20.30;66.80;;;;;;5060417;28;19918;-59
2022/10/28 14:17:39;;;;;;;;;;;20.30;66.80;;;;;;5095459;28;20424;-59
2022/10/28 14:20:06;;;;;;;;;;;20.30;67.00;;;;;;5077209;28;20359;-59
2022/10/28 14:22:32;;;;;;;;;;;20.30;67.10;;;;;;5077112;28;19990;-58